Time;durP1;ratioP1;P1;durP2;ratioP2;P2;SDS_P1;SDS_P2;PMS_P1;PMS_P2;Temp;Humidity;BMP_temperature;BMP_pressure;BME280_temperature;BME280_humidity;BME280_pressure;Samples;Min_cycle;Max_cycle;Signal;HPM_P1;HPM_P2
2023/12/05 00:01:32;;;;;;;135.25;58.45;;;15.70;60.30;;;;;;4987970;28;95630;-77
2023/12/05 00:03:59;;;;;;;134.60;58.00;;;15.70;60.30;;;;;;4985680;28;96696;-78
2023/12/05 00:06:24;;;;;;;136.07;58.60;;;15.70;60.30;;;;;;4968588;28;99125;-81
2023/12/05 00:08:50;;;;;;;135.63;58.47;;;15.70;60.30;;;;;;4983221;28;95744;-78
2023/12/05 00:11:16;;;;;;;135.57;58.20;;;15.70;60.30;;;;;;4985789;28;96749;-78
2023/12/05 00:13:42;;;;;;;134.82;57.65;;;15.70;60.30;;;;;;4979771;28;95589;-82
2023/12/05 00:16:08;;;;;;;134.75;58.10;;;15.60;60.30;;;;;;4966158;28;98057;-78
2023/12/05 00:18:36;;;;;;;136.93;59.63;;;15.60;60.20;;;;;;4981026;28;96155;-77
2023/12/05 00:21:02;;;;;;;135.95;58.65;;;15.60;60.20;;;;;;4965095;28;95384;-80
2023/12/05 00:23:28;;;;;;;135.15;58.47;;;15.60;60.30;;;;;;4982018;28;95447;-77
2023/12/05 00:25:53;;;;;;;134.25;57.17;;;15.60;60.30;;;;;;4988881;28;94965;-78
2023/12/05 00:28:19;;;;;;;136.80;58.80;;;15.60;60.20;;;;;;4988033;28;100939;-78
2023/12/05 00:30:44;;;;;;;134.30;57.53;;;15.60;60.30;;;;;;4984117;28;99958;-78
2023/12/05 00:33:10;;;;;;;133.48;57.28;;;15.60;60.30;;;;;;4985260;28;94920;-77
2023/12/05 00:35:36;;;;;;;134.75;58.40;;;15.50;60.20;;;;;;4988677;28;95390;-81
2023/12/05 00:38:01;;;;;;;133.25;57.40;;;15.60;60.30;;;;;;4987523;28;94769;-77
2023/12/05 00:40:29;;;;;;;136.13;58.42;;;15.50;60.30;;;;;;4986546;28;94688;-78
2023/12/05 00:42:58;;;;;;;134.30;57.85;;;15.50;60.30;;;;;;4985971;28;95283;-78
2023/12/05 00:45:24;;;;;;;134.52;58.53;;;15.50;60.40;;;;;;4984487;28;95345;-78
2023/12/05 00:47:51;;;;;;;133.68;57.58;;;15.50;60.30;;;;;;4983869;28;95827;-80
2023/12/05 00:50:17;;;;;;;135.48;58.05;;;15.50;60.30;;;;;;4985290;28;95968;-81
2023/12/05 00:52:43;;;;;;;135.10;58.38;;;15.50;60.30;;;;;;4965833;28;99533;-81
2023/12/05 00:55:09;;;;;;;136.05;58.75;;;15.50;60.40;;;;;;4983866;28;98162;-81
2023/12/05 00:57:34;;;;;;;136.27;58.80;;;15.50;60.40;;;;;;4982016;28;94995;-81
2023/12/05 01:00:00;;;;;;;135.85;58.47;;;15.40;60.40;;;;;;4979010;28;95935;-81
2023/12/05 01:02:26;;;;;;;134.60;57.83;;;15.40;60.40;;;;;;4983756;28;97698;-81
2023/12/05 01:04:51;;;;;;;134.18;57.95;;;15.40;60.40;;;;;;4986073;28;99268;-81
2023/12/05 01:07:18;;;;;;;134.38;58.85;;;15.40;60.50;;;;;;4979486;28;94736;-81
2023/12/05 01:09:44;;;;;;;134.75;58.63;;;15.40;60.50;;;;;;4967053;28;94095;-82
2023/12/05 01:12:11;;;;;;;135.00;58.22;;;15.40;60.50;;;;;;4980501;28;96940;-82
2023/12/05 01:14:37;;;;;;;134.90;58.30;;;15.40;60.50;;;;;;4986913;28;95535;-82
2023/12/05 01:17:03;;;;;;;133.07;57.42;;;15.40;60.50;;;;;;4984174;28;96373;-82
2023/12/05 01:19:29;;;;;;;134.77;58.15;;;15.40;60.60;;;;;;4987912;28;95571;-83
2023/12/05 01:21:55;;;;;;;134.43;58.38;;;15.40;60.60;;;;;;4970920;28;98227;-83
2023/12/05 01:24:21;;;;;;;133.25;57.28;;;15.30;60.50;;;;;;4966490;28;97313;-83
2023/12/05 01:26:47;;;;;;;134.45;57.90;;;15.40;60.70;;;;;;4970852;28;94495;-83
2023/12/05 01:29:13;;;;;;;134.45;58.10;;;15.30;60.60;;;;;;4967465;28;94931;-82
2023/12/05 01:31:39;;;;;;;134.75;58.20;;;15.30;60.60;;;;;;4977443;28;98204;-83
2023/12/05 01:34:04;;;;;;;134.75;58.17;;;15.30;60.80;;;;;;4966596;28;98101;-82
2023/12/05 01:36:30;;;;;;;134.95;58.85;;;15.30;60.80;;;;;;4989860;28;96178;-82
2023/12/05 01:38:56;;;;;;;133.32;57.58;;;15.30;60.80;;;;;;4984194;28;95771;-82
2023/12/05 01:41:22;;;;;;;133.20;57.90;;;15.30;60.80;;;;;;4987463;28;96299;-82
2023/12/05 01:43:48;;;;;;;135.18;58.05;;;15.30;60.80;;;;;;4986767;28;96197;-83
2023/12/05 01:46:14;;;;;;;132.55;57.50;;;15.30;60.80;;;;;;4989306;28;95079;-82
2023/12/05 01:48:40;;;;;;;133.18;57.72;;;15.20;60.80;;;;;;4986963;28;96392;-78
2023/12/05 01:51:09;;;;;;;133.05;57.78;;;15.20;60.80;;;;;;4982934;28;95439;-77
2023/12/05 01:53:37;;;;;;;132.93;57.65;;;15.30;60.90;;;;;;4984821;28;96355;-77
2023/12/05 01:56:04;;;;;;;133.38;57.25;;;15.20;60.90;;;;;;4990509;28;94723;-77
2023/12/05 01:58:33;;;;;;;133.32;57.63;;;15.20;60.90;;;;;;4972938;28;95676;-81
2023/12/05 02:01:00;;;;;;;133.60;58.10;;;15.20;60.90;;;;;;4981015;28;95419;-78
2023/12/05 02:03:26;;;;;;;133.05;57.72;;;15.20;61.00;;;;;;4988003;28;97252;-77
2023/12/05 02:05:53;;;;;;;133.88;57.92;;;15.20;61.00;;;;;;4987759;28;96573;-81
2023/12/05 02:08:22;;;;;;;133.68;57.85;;;15.20;61.00;;;;;;4990182;28;96532;-78
2023/12/05 02:10:48;;;;;;;132.95;57.65;;;15.20;61.10;;;;;;4987168;28;95473;-77
2023/12/05 02:13:13;;;;;;;133.35;57.35;;;15.20;61.20;;;;;;4965696;28;99513;-78
2023/12/05 02:15:39;;;;;;;132.95;57.42;;;15.20;61.10;;;;;;4988522;28;96464;-81
2023/12/05 02:18:15;;;;;;;132.85;57.70;;;15.20;61.20;;;;;;4968448;28;95452;-80
2023/12/05 02:20:47;;;;;;;132.77;56.95;;;15.20;61.10;;;;;;4974712;28;98157;-77
2023/12/05 02:23:48;;;;;;;133.13;57.97;;;15.20;61.20;;;;;;4988591;28;94676;-77
2023/12/05 02:26:40;;;;;;;131.70;56.87;;;15.10;61.20;;;;;;4985657;28;95538;-80
2023/12/05 02:29:06;;;;;;;131.70;57.05;;;15.10;61.30;;;;;;4987883;28;95970;-80
2023/12/05 02:31:31;;;;;;;132.30;56.92;;;15.10;61.30;;;;;;4968054;28;100520;-77
2023/12/05 02:33:57;;;;;;;132.50;57.13;;;15.10;62.10;;;;;;4988339;28;95388;-75
2023/12/05 02:36:49;;;;;;;131.45;56.92;;;15.10;61.40;;;;;;4990282;28;95010;-78
2023/12/05 02:39:27;;;;;;;130.15;56.20;;;15.10;61.30;;;;;;4991415;28;96659;-79
2023/12/05 02:41:55;;;;;;;132.23;57.63;;;15.10;61.30;;;;;;4969700;28;99564;-78
2023/12/05 02:44:26;;;;;;;133.80;57.95;;;15.10;61.40;;;;;;4986501;28;95673;-78
2023/12/05 02:46:53;;;;;;;131.55;57.20;;;15.10;61.40;;;;;;4971877;28;95809;-79
2023/12/05 02:49:19;;;;;;;133.05;57.35;;;15.10;61.50;;;;;;4993701;28;94169;-78
2023/12/05 02:51:45;;;;;;;131.30;57.03;;;15.10;61.40;;;;;;4989004;28;96101;-81
2023/12/05 02:54:11;;;;;;;132.43;57.63;;;15.10;61.50;;;;;;4992777;28;96169;-81
2023/12/05 02:56:37;;;;;;;131.00;56.45;;;15.00;61.40;;;;;;4970294;28;96042;-79
2023/12/05 02:59:03;;;;;;;130.20;56.92;;;15.00;61.50;;;;;;4984173;28;94850;-81
2023/12/05 03:01:29;;;;;;;132.50;57.72;;;15.00;61.50;;;;;;4965750;28;97044;-81
2023/12/05 03:03:55;;;;;;;132.18;57.28;;;15.00;61.50;;;;;;4988008;28;95041;-81
2023/12/05 03:06:20;;;;;;;132.15;57.35;;;15.00;61.60;;;;;;4971823;28;95333;-81
2023/12/05 03:08:46;;;;;;;131.05;57.08;;;15.00;61.60;;;;;;4992250;28;94737;-81
2023/12/05 03:11:12;;;;;;;131.77;56.90;;;15.00;61.70;;;;;;4989149;28;95102;-81
2023/12/05 03:13:39;;;;;;;132.40;57.33;;;15.00;61.70;;;;;;4987272;28;95020;-82
2023/12/05 03:16:06;;;;;;;131.15;57.33;;;15.00;61.70;;;;;;4990869;28;94906;-81
2023/12/05 03:18:32;;;;;;;132.18;57.72;;;15.00;61.70;;;;;;4990278;28;94238;-81
2023/12/05 03:20:57;;;;;;;129.48;56.10;;;15.00;61.70;;;;;;4990621;28;95478;-81
2023/12/05 03:23:23;;;;;;;131.80;57.50;;;15.00;61.70;;;;;;4986302;28;95941;-81
2023/12/05 03:25:49;;;;;;;131.25;57.38;;;15.00;61.80;;;;;;4989111;28;94811;-81
2023/12/05 03:28:14;;;;;;;131.20;56.95;;;15.00;61.80;;;;;;4985979;28;94886;-80
2023/12/05 03:30:40;;;;;;;131.82;57.30;;;15.00;61.80;;;;;;4989408;28;95405;-81
2023/12/05 03:33:06;;;;;;;132.88;57.67;;;14.90;61.80;;;;;;4991241;28;94550;-81
2023/12/05 03:35:31;;;;;;;129.23;55.88;;;14.90;61.90;;;;;;4989611;28;94390;-81
2023/12/05 03:37:57;;;;;;;131.30;57.28;;;14.90;61.90;;;;;;4989384;28;93677;-81
2023/12/05 03:40:22;;;;;;;132.20;57.47;;;14.90;61.90;;;;;;4990768;28;95003;-81
2023/12/05 03:42:48;;;;;;;132.45;57.72;;;14.90;61.90;;;;;;4988182;28;94683;-82
2023/12/05 03:45:14;;;;;;;131.35;57.13;;;14.90;62.00;;;;;;4986689;28;96391;-82
2023/12/05 03:47:39;;;;;;;132.60;57.88;;;14.90;62.10;;;;;;4989148;28;95011;-82
2023/12/05 03:50:05;;;;;;;131.48;57.45;;;14.90;62.10;;;;;;4987472;28;95454;-80
2023/12/05 03:52:31;;;;;;;131.57;57.25;;;14.80;62.00;;;;;;4989978;28;95668;-81
2023/12/05 03:54:57;;;;;;;130.38;56.90;;;14.80;62.00;;;;;;4987460;28;94897;-80
2023/12/05 03:57:22;;;;;;;131.10;56.95;;;14.90;62.20;;;;;;4972308;28;95505;-82
2023/12/05 03:59:48;;;;;;;132.52;57.63;;;14.80;62.30;;;;;;4985943;28;95133;-82
2023/12/05 04:02:13;;;;;;;129.98;56.53;;;14.90;62.40;;;;;;4986891;28;94650;-81
2023/12/05 04:04:39;;;;;;;130.93;56.83;;;14.90;62.20;;;;;;4990107;28;94919;-81
2023/12/05 04:07:05;;;;;;;131.48;57.40;;;14.90;62.10;;;;;;4987983;28;94910;-81
2023/12/05 04:09:31;;;;;;;132.38;57.28;;;14.90;62.10;;;;;;4983735;28;100400;-82
2023/12/05 04:11:57;;;;;;;130.60;56.83;;;14.90;62.10;;;;;;4969388;28;98748;-82
2023/12/05 04:14:24;;;;;;;131.93;57.55;;;14.90;62.90;;;;;;4990949;28;96395;-83
2023/12/05 04:16:50;;;;;;;131.30;57.15;;;14.90;62.10;;;;;;4990733;28;94428;-83
2023/12/05 04:19:15;;;;;;;130.68;56.63;;;14.90;62.10;;;;;;4968155;28;100244;-83
2023/12/05 04:21:41;;;;;;;133.15;56.67;;;14.90;62.20;;;;;;4985237;28;96222;-83
2023/12/05 04:24:07;;;;;;;130.40;56.63;;;14.90;62.20;;;;;;4990167;28;95833;-82
2023/12/05 04:26:32;;;;;;;131.98;57.28;;;14.90;62.20;;;;;;4966048;28;93777;-83
2023/12/05 04:28:58;;;;;;;129.93;56.25;;;14.90;62.20;;;;;;4989295;28;96991;-82
2023/12/05 04:31:27;;;;;;;131.50;56.95;;;15.00;62.20;;;;;;4990158;28;95596;-82
2023/12/05 04:33:53;;;;;;;132.00;56.38;;;15.00;62.10;;;;;;4987720;28;95261;-82
2023/12/05 04:36:19;;;;;;;131.05;57.13;;;15.00;62.90;;;;;;4966390;28;94890;-82
2023/12/05 04:38:44;;;;;;;130.57;56.83;;;15.00;62.00;;;;;;4985057;28;94555;-83
2023/12/05 04:41:10;;;;;;;130.77;56.70;;;15.00;62.10;;;;;;4990131;28;96159;-83
2023/12/05 04:43:36;;;;;;;131.23;57.05;;;15.10;62.10;;;;;;4990704;28;94738;-84
2023/12/05 04:46:02;;;;;;;131.85;57.55;;;15.10;62.00;;;;;;4990703;28;96108;-84
2023/12/05 04:48:27;;;;;;;131.02;57.00;;;15.00;62.00;;;;;;4970063;28;98108;-83
2023/12/05 04:50:53;;;;;;;132.02;56.65;;;15.10;62.20;;;;;;4990653;28;95089;-82
2023/12/05 04:53:19;;;;;;;133.32;57.67;;;15.10;62.10;;;;;;4982153;28;94682;-83
2023/12/05 04:55:44;;;;;;;132.63;56.60;;;15.10;62.20;;;;;;4988204;28;95469;-83
2023/12/05 04:58:10;;;;;;;130.52;56.50;;;15.10;62.20;;;;;;4990623;28;95802;-82
2023/12/05 05:00:36;;;;;;;130.77;56.63;;;15.10;62.30;;;;;;4965946;28;98535;-82
2023/12/05 05:03:02;;;;;;;131.70;56.95;;;15.10;62.40;;;;;;4992177;28;95476;-82
2023/12/05 05:05:28;;;;;;;132.90;58.17;;;15.00;62.50;;;;;;4970897;28;95618;-82
2023/12/05 05:07:53;;;;;;;132.00;57.03;;;15.00;62.70;;;;;;4990207;28;95270;-82
2023/12/05 05:10:19;;;;;;;132.23;57.80;;;15.00;62.60;;;;;;4989180;28;95834;-83
2023/12/05 05:12:44;;;;;;;131.57;57.45;;;15.10;62.40;;;;;;4966952;28;95631;-82
2023/12/05 05:15:10;;;;;;;134.32;57.10;;;15.00;62.50;;;;;;4991713;28;96476;-82
2023/12/05 05:17:36;;;;;;;132.18;56.22;;;15.00;62.60;;;;;;4992779;28;94709;-82
2023/12/05 05:20:03;;;;;;;135.57;58.05;;;15.00;62.60;;;;;;4992401;28;96126;-78
2023/12/05 05:22:28;;;;;;;130.82;57.22;;;15.00;62.40;;;;;;4989861;28;96213;-79
2023/12/05 05:24:54;;;;;;;133.35;57.40;;;15.00;62.30;;;;;;4988573;28;96214;-78
2023/12/05 05:27:20;;;;;;;132.43;57.17;;;15.00;62.50;;;;;;4993463;28;94914;-78
2023/12/05 05:29:45;;;;;;;135.48;58.00;;;15.00;62.50;;;;;;4971888;28;98353;-80
2023/12/05 05:32:11;;;;;;;131.38;56.97;;;15.00;62.50;;;;;;4992159;28;97164;-84
2023/12/05 05:34:37;;;;;;;134.13;57.63;;;15.00;62.50;;;;;;4970084;28;94424;-85
2023/12/05 05:37:03;;;;;;;131.90;56.38;;;15.00;62.60;;;;;;4971618;28;97679;-85
2023/12/05 05:39:28;;;;;;;131.65;56.80;;;14.90;62.60;;;;;;4993900;28;96708;-85
2023/12/05 05:41:54;;;;;;;132.95;57.95;;;14.90;63.30;;;;;;4969697;28;96485;-85
2023/12/05 05:44:20;;;;;;;133.32;57.17;;;14.90;63.40;;;;;;4965354;28;97019;-81
2023/12/05 05:46:45;;;;;;;140.38;57.95;;;14.90;62.50;;;;;;4971509;28;99539;-86
2023/12/05 05:49:11;;;;;;;137.50;57.75;;;15.00;62.80;;;;;;4974104;28;99570;-84
2023/12/05 05:51:37;;;;;;;136.20;57.60;;;15.00;63.30;;;;;;4990005;28;95176;-86
2023/12/05 05:54:03;;;;;;;133.57;58.15;;;15.00;63.10;;;;;;4973876;28;94471;-85
2023/12/05 05:56:29;;;;;;;134.93;58.05;;;14.90;63.20;;;;;;4982283;28;96082;-82
2023/12/05 05:58:54;;;;;;;133.07;58.10;;;14.90;63.40;;;;;;4987739;28;95085;-80
2023/12/05 06:01:20;;;;;;;131.07;57.75;;;14.90;63.50;;;;;;4986865;28;96867;-80
2023/12/05 06:03:46;;;;;;;133.52;58.40;;;14.90;63.60;;;;;;4970315;28;93441;-80
2023/12/05 06:06:11;;;;;;;137.02;58.13;;;14.90;63.60;;;;;;4987924;28;95500;-80
2023/12/05 06:08:37;;;;;;;135.43;58.67;;;14.90;63.90;;;;;;4986572;28;95578;-80
2023/12/05 06:11:03;;;;;;;136.70;58.85;;;14.90;64.60;;;;;;4986390;28;96623;-81
2023/12/05 06:13:29;;;;;;;134.82;59.22;;;14.90;64.30;;;;;;4989734;28;97862;-80
2023/12/05 06:15:54;;;;;;;139.20;58.55;;;14.90;64.40;;;;;;4970734;28;98030;-83
2023/12/05 06:18:20;;;;;;;134.55;58.97;;;14.90;64.50;;;;;;4989224;28;94745;-81
2023/12/05 06:20:46;;;;;;;137.93;59.03;;;14.90;64.80;;;;;;4992610;28;95304;-82
2023/12/05 06:23:12;;;;;;;137.40;59.13;;;14.90;65.00;;;;;;4985517;28;95623;-80
2023/12/05 06:25:39;;;;;;;134.88;58.80;;;14.90;65.10;;;;;;4983571;28;95968;-80
2023/12/05 06:28:05;;;;;;;135.70;57.17;;;14.90;65.40;;;;;;4980650;28;98255;-81
2023/12/05 06:30:30;;;;;;;139.27;59.10;;;14.90;65.50;;;;;;4991776;28;94703;-81
2023/12/05 06:32:56;;;;;;;135.75;58.30;;;14.90;65.40;;;;;;4989774;28;95236;-82
2023/12/05 06:35:22;;;;;;;138.07;59.33;;;14.90;65.70;;;;;;4984022;28;99517;-81
2023/12/05 06:37:47;;;;;;;139.27;59.72;;;14.90;65.70;;;;;;4992246;28;95513;-84
2023/12/05 06:40:13;;;;;;;137.55;59.28;;;14.90;65.70;;;;;;4992064;28;94402;-85
2023/12/05 06:42:40;;;;;;;139.43;59.25;;;14.90;66.10;;;;;;4970130;28;94888;-86
2023/12/05 06:45:06;;;;;;;135.68;58.38;;;14.90;65.40;;;;;;4990381;28;95897;-86
2023/12/05 06:47:33;;;;;;;137.50;59.05;;;14.90;65.20;;;;;;4992538;28;95067;-85
2023/12/05 06:50:01;;;;;;;140.35;59.35;;;14.80;65.10;;;;;;4997704;28;94270;-86
2023/12/05 06:52:28;;;;;;;132.70;58.08;;;14.80;65.10;;;;;;4993564;28;93707;-83
2023/12/05 06:54:53;;;;;;;137.38;58.00;;;14.80;65.00;;;;;;4989265;28;95120;-86
2023/12/05 06:57:19;;;;;;;137.93;59.55;;;14.80;65.00;;;;;;4992183;28;94717;-85
2023/12/05 06:59:45;;;;;;;136.48;57.97;;;14.80;64.70;;;;;;4995040;28;95342;-85
2023/12/05 07:02:10;;;;;;;139.95;58.90;;;14.80;64.90;;;;;;4994876;28;94491;-86
2023/12/05 07:04:36;;;;;;;134.25;58.17;;;14.80;64.70;;;;;;4990482;28;95341;-86
2023/12/05 07:07:02;;;;;;;137.98;58.70;;;14.70;64.70;;;;;;4993436;28;95511;-86
2023/12/05 07:09:30;;;;;;;134.98;58.75;;;14.70;64.70;;;;;;4996807;28;94659;-83
2023/12/05 07:11:56;;;;;;;133.00;57.45;;;14.70;64.70;;;;;;4994533;28;93980;-86
2023/12/05 07:14:21;;;;;;;138.23;58.05;;;14.70;64.70;;;;;;4994010;28;94341;-86
2023/12/05 07:16:47;;;;;;;134.35;58.22;;;14.70;64.70;;;;;;4991362;28;95506;-85
2023/12/05 07:19:12;;;;;;;133.27;57.65;;;14.60;64.60;;;;;;4991593;28;94425;-86
2023/12/05 07:21:38;;;;;;;135.77;58.00;;;14.60;64.60;;;;;;4988877;28;95574;-85
2023/12/05 07:24:04;;;;;;;132.57;58.45;;;14.70;64.70;;;;;;4988495;28;99214;-84
2023/12/05 07:26:29;;;;;;;135.13;58.35;;;14.60;64.60;;;;;;4995118;28;96002;-86
2023/12/05 07:28:55;;;;;;;133.35;57.90;;;14.70;64.70;;;;;;4995054;28;94343;-83
2023/12/05 07:31:21;;;;;;;132.07;58.15;;;14.60;64.60;;;;;;4991176;28;95290;-86
2023/12/05 07:33:47;;;;;;;131.40;56.60;;;14.60;64.30;;;;;;4995523;28;94382;-85
2023/12/05 07:36:13;;;;;;;132.15;58.15;;;14.60;64.50;;;;;;4992784;28;96271;-86
2023/12/05 07:38:39;;;;;;;132.02;58.67;;;14.60;64.50;;;;;;4991596;28;94306;-83
2023/12/05 07:41:04;;;;;;;131.88;57.53;;;14.60;64.50;;;;;;4995630;28;93423;-86
2023/12/05 07:43:30;;;;;;;134.23;57.67;;;14.60;64.80;;;;;;4976292;28;97846;-85
2023/12/05 07:45:56;;;;;;;131.10;57.53;;;14.60;64.30;;;;;;4979202;28;98944;-85
2023/12/05 07:48:22;;;;;;;133.77;58.03;;;14.60;64.60;;;;;;4974910;28;95789;-86
2023/12/05 07:50:47;;;;;;;131.80;57.78;;;14.60;64.50;;;;;;4988344;28;97051;-81
2023/12/05 07:53:14;;;;;;;131.40;57.40;;;14.60;64.60;;;;;;4972352;28;98487;-81
2023/12/05 07:55:40;;;;;;;132.65;57.88;;;14.50;64.60;;;;;;4992373;28;95156;-81
2023/12/05 07:58:05;;;;;;;131.10;57.45;;;14.50;64.50;;;;;;4994037;28;96733;-81
2023/12/05 08:00:31;;;;;;;132.18;57.20;;;14.50;64.40;;;;;;4975593;28;95150;-81
2023/12/05 08:02:57;;;;;;;131.38;57.65;;;14.50;64.30;;;;;;4972278;28;97811;-81
2023/12/05 08:05:23;;;;;;;132.68;58.20;;;14.50;64.40;;;;;;4973088;28;99060;-80
2023/12/05 08:07:49;;;;;;;131.18;57.25;;;14.50;64.40;;;;;;4987164;28;94965;-81
2023/12/05 08:10:14;;;;;;;130.95;57.53;;;14.50;64.40;;;;;;4993997;28;94895;-80
2023/12/05 08:12:40;;;;;;;130.82;57.45;;;14.50;64.40;;;;;;4991821;28;97906;-81
2023/12/05 08:15:07;;;;;;;131.60;57.53;;;14.50;64.30;;;;;;4989737;28;95642;-80
2023/12/05 08:17:32;;;;;;;131.23;57.53;;;14.50;64.40;;;;;;4977490;28;94820;-80
2023/12/05 08:19:58;;;;;;;134.30;57.75;;;14.50;64.40;;;;;;4992305;28;96506;-80
2023/12/05 08:22:25;;;;;;;129.85;57.17;;;14.40;64.20;;;;;;4992982;28;95276;-80
2023/12/05 08:24:51;;;;;;;132.35;57.80;;;14.40;64.40;;;;;;4992137;28;94859;-81
2023/12/05 08:27:16;;;;;;;130.57;57.63;;;14.40;64.30;;;;;;4991086;28;95687;-81
2023/12/05 08:29:42;;;;;;;132.95;57.88;;;14.40;64.30;;;;;;4976572;28;94802;-81
2023/12/05 08:32:09;;;;;;;132.43;58.05;;;14.40;64.20;;;;;;4993888;28;95273;-81
2023/12/05 08:34:34;;;;;;;130.35;57.30;;;14.40;64.30;;;;;;4994981;28;94758;-80
2023/12/05 08:37:00;;;;;;;129.90;57.63;;;14.40;64.30;;;;;;5000334;28;96106;-81
2023/12/05 08:39:26;;;;;;;131.57;57.95;;;14.40;64.40;;;;;;4995626;28;94743;-81
2023/12/05 08:41:52;;;;;;;132.48;58.22;;;14.40;64.30;;;;;;4991880;28;94685;-81
2023/12/05 08:44:19;;;;;;;130.55;57.65;;;14.40;64.50;;;;;;4994020;28;95097;-81
2023/12/05 08:46:46;;;;;;;130.07;57.30;;;14.40;64.40;;;;;;4974065;28;95074;-81
2023/12/05 08:49:12;;;;;;;132.10;57.35;;;14.40;64.50;;;;;;4998646;28;94166;-81
2023/12/05 08:51:38;;;;;;;130.10;57.38;;;14.30;64.40;;;;;;4997292;28;95451;-81
2023/12/05 08:54:04;;;;;;;131.82;57.80;;;14.40;64.50;;;;;;4996024;28;94806;-81
2023/12/05 08:56:30;;;;;;;134.30;57.90;;;14.30;64.40;;;;;;4991674;28;94796;-81
2023/12/05 08:58:55;;;;;;;131.10;57.95;;;14.30;64.40;;;;;;4995485;28;94772;-80
2023/12/05 09:01:23;;;;;;;130.10;57.78;;;14.30;64.40;;;;;;4971994;28;101087;-81
2023/12/05 09:03:52;;;;;;;129.05;56.85;;;14.30;64.40;;;;;;4993439;28;95851;-80
2023/12/05 09:06:17;;;;;;;130.13;57.70;;;14.40;64.50;;;;;;4975195;28;96111;-80
2023/12/05 09:08:43;;;;;;;131.10;57.63;;;14.30;64.40;;;;;;4997383;28;95202;-82
2023/12/05 09:11:11;;;;;;;129.80;57.83;;;14.40;64.50;;;;;;4974825;28;98036;-81
2023/12/05 09:13:37;;;;;;;129.95;57.65;;;14.30;64.40;;;;;;4995387;28;94228;-83
2023/12/05 09:16:03;;;;;;;132.05;58.60;;;14.30;64.30;;;;;;4999813;28;95234;-84
2023/12/05 09:18:28;;;;;;;130.25;57.47;;;14.40;64.30;;;;;;5002902;28;94757;-83
2023/12/05 09:20:54;;;;;;;130.57;58.03;;;14.30;64.30;;;;;;5001561;28;95151;-81
2023/12/05 09:23:20;;;;;;;130.57;57.88;;;14.30;64.30;;;;;;4998380;28;95444;-82
2023/12/05 09:25:46;;;;;;;130.15;57.80;;;14.40;64.30;;;;;;4997913;28;95273;-83
2023/12/05 09:28:12;;;;;;;130.73;58.35;;;14.30;64.20;;;;;;4979473;28;95757;-84
2023/12/05 09:30:38;;;;;;;130.00;57.47;;;14.40;64.20;;;;;;5002270;28;95305;-84
2023/12/05 09:33:04;;;;;;;129.68;57.58;;;14.30;64.20;;;;;;4996336;28;94769;-84
2023/12/05 09:35:30;;;;;;;131.57;58.30;;;14.40;64.20;;;;;;5000602;28;93981;-82
2023/12/05 09:37:56;;;;;;;130.98;58.15;;;14.30;64.10;;;;;;4995001;28;94816;-82
2023/12/05 09:40:22;;;;;;;131.15;58.25;;;14.30;64.20;;;;;;4996907;28;94944;-83
2023/12/05 09:42:48;;;;;;;131.55;57.83;;;14.30;64.20;;;;;;4979346;28;97475;-84
2023/12/05 09:45:16;;;;;;;130.68;57.30;;;14.30;64.10;;;;;;4993142;28;94769;-83
2023/12/05 09:47:45;;;;;;;130.80;58.03;;;14.30;64.20;;;;;;4999827;28;94592;-82
2023/12/05 09:50:10;;;;;;;131.00;57.95;;;14.30;64.20;;;;;;4993137;28;96121;-84
2023/12/05 09:52:37;;;;;;;130.43;57.80;;;14.30;64.20;;;;;;4980000;28;98659;-84
2023/12/05 09:55:05;;;;;;;129.57;57.35;;;14.30;64.10;;;;;;4995908;28;94176;-85
2023/12/05 09:57:31;;;;;;;130.43;57.80;;;14.30;64.20;;;;;;4979686;28;94411;-82
2023/12/05 09:59:57;;;;;;;130.07;57.80;;;14.30;64.10;;;;;;4997659;28;95545;-83
2023/12/05 10:02:24;;;;;;;130.57;58.00;;;14.30;64.10;;;;;;4995062;28;94979;-84
2023/12/05 10:04:56;;;;;;;132.48;57.60;;;14.30;64.20;;;;;;4995876;28;95594;-84
2023/12/05 10:07:24;;;;;;;131.60;58.85;;;14.30;64.20;;;;;;4994085;28;93540;-84
2023/12/05 10:09:51;;;;;;;132.07;58.55;;;14.30;64.20;;;;;;4993688;28;95214;-83
2023/12/05 10:12:16;;;;;;;131.45;58.45;;;14.30;64.20;;;;;;4998419;28;95081;-83
2023/12/05 10:14:42;;;;;;;131.25;58.50;;;14.20;64.10;;;;;;4994235;28;95085;-84
2023/12/05 10:17:08;;;;;;;130.85;58.22;;;14.30;64.20;;;;;;4996386;28;94473;-84
2023/12/05 10:19:34;;;;;;;130.65;58.15;;;14.20;64.20;;;;;;4981749;28;98549;-83
2023/12/05 10:22:01;;;;;;;131.32;58.78;;;14.30;64.20;;;;;;4995504;28;95134;-82
2023/12/05 10:24:42;;;;;;;130.65;58.03;;;14.20;64.10;;;;;;4990266;28;95187;-83
2023/12/05 10:27:08;;;;;;;132.20;58.33;;;14.30;64.20;;;;;;4995489;28;94252;-82
2023/12/05 10:29:39;;;;;;;130.88;58.33;;;14.30;64.10;;;;;;4997591;28;94871;-82
2023/12/05 10:32:06;;;;;;;132.38;58.80;;;14.20;64.10;;;;;;4976340;28;97869;-82
2023/12/05 10:34:46;;;;;;;131.73;58.65;;;14.20;64.10;;;;;;4998056;28;94619;-82
2023/12/05 10:37:12;;;;;;;130.00;58.40;;;14.20;64.10;;;;;;4995911;28;94837;-82
2023/12/05 10:39:38;;;;;;;131.57;58.85;;;14.20;64.10;;;;;;4993440;28;97733;-83
2023/12/05 10:42:06;;;;;;;129.70;58.17;;;14.20;64.00;;;;;;4995877;28;95768;-82
2023/12/05 10:44:38;;;;;;;130.57;58.42;;;14.30;64.10;;;;;;4993836;28;95030;-82
2023/12/05 10:47:04;;;;;;;130.35;58.42;;;14.30;64.10;;;;;;4990959;28;94484;-82
2023/12/05 10:49:30;;;;;;;133.80;59.03;;;14.30;64.00;;;;;;4996222;28;95332;-82
2023/12/05 10:51:56;;;;;;;130.77;58.58;;;14.30;64.10;;;;;;4991323;28;96860;-82
2023/12/05 10:54:21;;;;;;;130.10;58.45;;;14.30;64.00;;;;;;4989014;28;94789;-82
2023/12/05 10:56:59;;;;;;;131.88;58.95;;;14.30;64.00;;;;;;4992744;28;93311;-82
2023/12/05 10:59:27;;;;;;;131.35;58.67;;;14.30;64.10;;;;;;4976027;28;99297;-82
2023/12/05 11:01:56;;;;;;;131.80;58.70;;;14.30;64.00;;;;;;4977328;28;97876;-82
2023/12/05 11:04:25;;;;;;;131.55;58.92;;;14.30;64.00;;;;;;4993552;28;94983;-82
2023/12/05 11:06:52;;;;;;;131.55;59.25;;;14.30;64.00;;;;;;4992140;28;94395;-82
2023/12/05 11:09:18;;;;;;;131.05;58.80;;;14.20;64.00;;;;;;4992082;28;95153;-82
2023/12/05 11:11:46;;;;;;;130.65;58.55;;;14.20;63.90;;;;;;4973026;28;97597;-82
2023/12/05 11:14:14;;;;;;;131.48;58.28;;;14.20;64.00;;;;;;4994207;28;94451;-83
2023/12/05 11:16:48;;;;;;;130.82;58.53;;;14.30;64.00;;;;;;4991152;28;94672;-81
2023/12/05 11:19:13;;;;;;;130.75;58.50;;;14.30;64.00;;;;;;4992878;28;95114;-82
2023/12/05 11:22:05;;;;;;;131.13;58.45;;;14.30;64.00;;;;;;4993610;28;95556;-83
2023/12/05 11:25:01;;;;;;;130.55;58.00;;;14.20;64.00;;;;;;4995128;28;94718;-82
2023/12/05 11:27:57;;;;;;;129.93;58.50;;;14.20;63.90;;;;;;4993009;28;95058;-82
2023/12/05 11:30:31;;;;;;;132.15;58.00;;;14.20;63.90;;;;;;4991441;28;95874;-79
2023/12/05 11:33:15;;;;;;;129.90;57.58;;;14.20;64.00;;;;;;4990353;28;95336;-79
2023/12/05 11:36:02;;;;;;;130.65;58.28;;;14.20;64.00;;;;;;4993666;28;94629;-79
2023/12/05 11:38:29;;;;;;;129.13;57.85;;;14.20;64.00;;;;;;4994717;28;95425;-79
2023/12/05 11:41:17;;;;;;;130.35;57.72;;;14.20;64.00;;;;;;4988834;28;95229;-78
2023/12/05 11:44:03;;;;;;;129.07;58.03;;;14.20;64.00;;;;;;4990854;28;95252;-79
2023/12/05 11:46:35;;;;;;;129.73;58.08;;;14.20;64.00;;;;;;4989071;28;95409;-79
2023/12/05 11:49:04;;;;;;;129.45;57.80;;;14.20;64.10;;;;;;4991946;28;94272;-79
2023/12/05 11:51:30;;;;;;;129.32;57.58;;;14.20;64.10;;;;;;4970963;28;97867;-79
2023/12/05 11:53:59;;;;;;;128.45;57.55;;;14.20;64.00;;;;;;4991158;28;95946;-79
2023/12/05 11:56:28;;;;;;;129.93;58.38;;;14.20;64.10;;;;;;4994700;28;96184;-79
2023/12/05 11:59:13;;;;;;;130.23;57.88;;;14.20;64.10;;;;;;4975397;28;95228;-78
2023/12/05 12:01:40;;;;;;;128.65;57.83;;;14.20;64.10;;;;;;4991229;28;95507;-79
2023/12/05 12:04:19;;;;;;;127.78;56.67;;;14.20;64.10;;;;;;4995983;28;95210;-79
2023/12/05 12:06:47;;;;;;;128.65;57.10;;;14.20;64.10;;;;;;4974690;28;94719;-79
2023/12/05 12:09:12;;;;;;;128.88;57.33;;;14.20;64.10;;;;;;4993296;28;94920;-80
2023/12/05 12:11:39;;;;;;;130.65;57.30;;;14.20;64.20;;;;;;4992447;28;95843;-79
2023/12/05 12:14:19;;;;;;;129.13;57.33;;;14.20;64.10;;;;;;4993219;28;96650;-79
2023/12/05 12:16:46;;;;;;;129.43;58.17;;;14.10;64.00;;;;;;4992676;28;94782;-79
2023/12/05 12:19:13;;;;;;;128.75;57.67;;;14.10;64.10;;;;;;4996506;28;94686;-79